This is the latest recevied weather packets stored in our database for station/object N9PBY-2. If no packets are shown the sender has not sent any weather packets the latest 10 day(s).
| Time | Temp. | Humidity | Pressure | Rain* | Wind** | Luminosity | Snow |
|---|---|---|---|---|---|---|---|
| 1777508407 | 6.67° C | 66% | 1015.3 hPa | 0.25 mm | - | - | - |
| 1777507806 | 6.67° C | 66% | 1015.3 hPa | 0.25 mm | - | - | - |
| 1777503007 | 7.22° C | 63% | 1015.2 hPa | 0 mm | - | - | - |
| 1777501206 | 7.22° C | 61% | 1015.2 hPa | 0 mm | - | - | - |
| 1777497607 | 7.22° C | 61% | 1015.1 hPa | 0 mm | - | - | - |
| 1777497007 | 7.22° C | 61% | 1015.1 hPa | 0 mm | - | - | - |
| 1777494610 | 6.67° C | 63% | 1015.3 hPa | 0 mm | - | - | - |
| 1777487407 | 6.11° C | 68% | 1015 hPa | 0 mm | - | - | - |
| 1777476007 | 6.11° C | 66% | 1014.7 hPa | 0 mm | - | - | - |
| 1777471807 | 6.11° C | 68% | 1014.5 hPa | 0 mm | - | - | - |
| 1777471207 | 6.11° C | 69% | 1014.4 hPa | 0 mm | - | - | - |
| 1777468207 | 5.56° C | 69% | 1014.6 hPa | 0.25 mm | - | - | - |
| 1777466407 | 5° C | 70% | 1014.6 hPa | 0.25 mm | - | - | - |
| 1777465806 | 5° C | 70% | 1014.5 hPa | 0 mm | - | - | - |
| 1777465207 | 5° C | 69% | 1014.5 hPa | 0 mm | - | - | - |
| 1777462807 | 5° C | 68% | 1014.3 hPa | 0.76 mm | - | - | - |
| 1777462206 | 5.56° C | 68% | 1014.3 hPa | 1.02 mm | - | - | - |
| 1777461607 | 5.56° C | 68% | 1014.2 hPa | 1.02 mm | - | - | - |
| 1777459206 | 6.11° C | 66% | 1014.2 hPa | 0.25 mm | - | - | - |
| 1777458006 | 6.67° C | 63% | 1014.1 hPa | 0 mm | - | - | - |
| 1777457406 | 6.67° C | 62% | 1014 hPa | 0 mm | - | - | - |
| 1777455606 | 6.67° C | 61% | 1013.8 hPa | 0 mm | - | - | - |
| 1777455006 | 6.67° C | 61% | 1013.7 hPa | 0 mm | - | - | - |
| 1777454406 | 6.67° C | 61% | 1013.7 hPa | 0 mm | - | - | - |
| 1777453807 | 6.67° C | 60% | 1013.8 hPa | 0 mm | - | - | - |
* Rain latest hour (hover to see other rain measurements)
** Current wind speed in m/s (hover to see current wind gust speed)